John H Macmillan Jr — WDB9907 — position and weather

sailwx.info

Track history (hours):
 
Tides and Currents Weather Stations Pressure Air Temp Water Temp Dewpoint Dewpoint Depression Visibility Wind Speed Wind Dir Waves Ship Positions

John H Macmillan Jr

Owner: American River Transportation Company, St Louis, MO. More information available from US FCC via Universal Licensing System and Coast Guard Vessel Documentation Center.

Last reported at 2015-Apr-28 15:21 UTC. Time now 2015-May-24 11:18 UTC.
Position N 30°43' W 091°21'.
Warning: this ship's position is 25 days out of date.

; draft 9 m.

Type: Towing. MMSI: 366984920.

Date/timePositionNaut miles runAvg speedWind from/ knotsBaromVisibWave heightAir tempDewpointWater temp
2015-Apr-28 15:21N 30°43' W 091°21'4 5.0
2015-Apr-28 14:33N 30°40' W 091°19'4 4.3
2015-Apr-28 13:34N 30°36' W 091°17'4 4.3
2015-Apr-28 12:34N 30°32' W 091°15'1 1.3
2015-Apr-28 11:33N 30°31' W 091°15'3 2.8
2015-Apr-28 10:34N 30°30' W 091°12'4 4.2
2015-Apr-28 09:34N 30°26' W 091°12'3 2.9
2015-Apr-28 08:34N 30°24' W 091°13'0 0.0
2015-Apr-28 07:33N 30°24' W 091°13'0 0.0
2015-Apr-28 06:32N 30°24' W 091°13'0 0.0
2015-Apr-28 05:32N 30°24' W 091°13'0 0.1
2015-Apr-28 04:33N 30°24' W 091°13'3 3.3
2015-Apr-28 03:33N 30°20' W 091°13'3 2.9
2015-Apr-28 02:34N 30°21' W 091°10'4 2.9
2015-Apr-28 01:07N 30°18' W 091°14'2 3.0
2015-Apr-28 00:33N 30°17' W 091°12'1 0.8
2015-Apr-27 23:28N 30°17' W 091°11'3 3.6
2015-Apr-27 22:30N 30°16' W 091°07'4 2.0
2015-Apr-27 20:24N 30°12' W 091°05'15 1.7
2015-Apr-27 11:23N 30°03' W 090°51'5 2.8
2015-Apr-27 09:31N 30°01' W 090°46'19 3.7
2015-Apr-27 04:32N 29°59' W 090°24'4 3.6
2015-Apr-27 03:33N 29°56' W 090°22'0 0.0
2015-Apr-25 22:29N 29°56' W 090°22'9 8.0
2015-Apr-25 21:22N 30°03' W 090°29'8 7.4
2015-Apr-25 20:21N 30°02' W 090°37'29 3.7
2015-Apr-25 12:33N 30°16' W 091°07'6 6.0
2015-Apr-25 11:34N 30°19' W 091°12'3 2.2
2015-Apr-25 10:25N 30°21' W 091°14'8 8.9
2015-Apr-25 09:34N 30°28' W 091°12'4 3.7
2015-Apr-25 08:34N 30°30' W 091°16'4 4.1
2015-Apr-25 07:33N 30°34' W 091°17'6 5.8
2015-Apr-25 06:34N 30°39' W 091°20'7 6.8
2015-Apr-25 05:30N 30°45' W 091°26'  
Track history (hours):
 
Tides and Currents Weather Stations Pressure Air Temp Water Temp Dewpoint Dewpoint Depression Visibility Wind Speed Wind Dir Waves Ship Positions

John H Macmillan Jr

Owner: American River Transportation Company, St Louis, MO. More information available from US FCC via Universal Licensing System and Coast Guard Vessel Documentation Center.

Last reported at 2015-Apr-28 15:21 UTC. Time now 2015-May-24 11:18 UTC.
Position N 30°43' W 091°21'.
Warning: this ship's position is 25 days out of date.

; draft 9 m.

Type: Towing. MMSI: 366984920.

Date/timePositionNaut miles runAvg speedWind from/ knotsBaromVisibWave heightAir tempDewpointWater temp
2015-Apr-28 15:21N 30°43' W 091°21'4 5.0
2015-Apr-28 14:33N 30°40' W 091°19'4 4.3
2015-Apr-28 13:34N 30°36' W 091°17'4 4.3
2015-Apr-28 12:34N 30°32' W 091°15'1 1.3
2015-Apr-28 11:33N 30°31' W 091°15'3 2.8
2015-Apr-28 10:34N 30°30' W 091°12'4 4.2
2015-Apr-28 09:34N 30°26' W 091°12'3 2.9
2015-Apr-28 08:34N 30°24' W 091°13'0 0.0
2015-Apr-28 07:33N 30°24' W 091°13'0 0.0
2015-Apr-28 06:32N 30°24' W 091°13'0 0.0
2015-Apr-28 05:32N 30°24' W 091°13'0 0.1
2015-Apr-28 04:33N 30°24' W 091°13'3 3.3
2015-Apr-28 03:33N 30°20' W 091°13'3 2.9
2015-Apr-28 02:34N 30°21' W 091°10'4 2.9
2015-Apr-28 01:07N 30°18' W 091°14'2 3.0
2015-Apr-28 00:33N 30°17' W 091°12'1 0.8
2015-Apr-27 23:28N 30°17' W 091°11'3 3.6
2015-Apr-27 22:30N 30°16' W 091°07'4 2.0
2015-Apr-27 20:24N 30°12' W 091°05'15 1.7
2015-Apr-27 11:23N 30°03' W 090°51'5 2.8
2015-Apr-27 09:31N 30°01' W 090°46'19 3.7
2015-Apr-27 04:32N 29°59' W 090°24'4 3.6
2015-Apr-27 03:33N 29°56' W 090°22'0 0.0
2015-Apr-25 22:29N 29°56' W 090°22'9 8.0
2015-Apr-25 21:22N 30°03' W 090°29'8 7.4
2015-Apr-25 20:21N 30°02' W 090°37'29 3.7
2015-Apr-25 12:33N 30°16' W 091°07'6 6.0
2015-Apr-25 11:34N 30°19' W 091°12'3 2.2
2015-Apr-25 10:25N 30°21' W 091°14'8 8.9
2015-Apr-25 09:34N 30°28' W 091°12'4 3.7
2015-Apr-25 08:34N 30°30' W 091°16'4 4.1
2015-Apr-25 07:33N 30°34' W 091°17'6 5.8
2015-Apr-25 06:34N 30°39' W 091°20'7 6.8
2015-Apr-25 05:30N 30°45' W 091°26'  

Dump ship's entire track history